createdAt,value
2022-08-11T00:03:43.478Z,96.50
2022-08-11T00:06:16.668Z,96.90
2022-08-11T00:08:51.225Z,96.80
2022-08-11T00:11:20.238Z,97.10
2022-08-11T00:13:49.886Z,97.40
2022-08-11T00:16:26.083Z,98.00
2022-08-11T00:18:56.668Z,98.30
2022-08-11T00:21:54.705Z,98.60
2022-08-11T00:24:20.352Z,99.00
2022-08-11T00:26:50.234Z,99.30
2022-08-11T00:29:18.528Z,99.20
2022-08-11T00:31:53.349Z,99.70
2022-08-11T00:34:36.426Z,99.90
2022-08-11T00:37:09.203Z,99.90
2022-08-11T00:39:47.406Z,99.90
2022-08-11T00:42:30.250Z,99.90
2022-08-11T00:45:19.769Z,99.90
2022-08-11T00:48:35.085Z,99.90
2022-08-11T00:52:04.788Z,99.90
2022-08-11T00:54:33.296Z,99.90
2022-08-11T00:57:35.987Z,99.90
2022-08-11T01:00:17.963Z,99.90
2022-08-11T01:03:06.827Z,99.90
2022-08-11T01:05:50.264Z,99.90
2022-08-11T01:08:32.715Z,99.90
2022-08-11T01:11:26.222Z,99.90
2022-08-11T01:14:34.032Z,99.90
2022-08-11T01:17:33.123Z,99.90
2022-08-11T01:20:47.205Z,99.90
2022-08-11T01:23:07.271Z,99.90
2022-08-11T01:26:10.404Z,99.90
2022-08-11T01:28:43.839Z,99.90
2022-08-11T01:31:38.671Z,99.90
2022-08-11T01:34:42.309Z,99.90
2022-08-11T01:37:40.939Z,99.90
2022-08-11T01:40:30.660Z,99.90
2022-08-11T01:43:19.727Z,99.90
2022-08-11T01:46:20.095Z,99.90
2022-08-11T01:50:08.483Z,99.90
2022-08-11T01:52:30.161Z,99.90
2022-08-11T01:55:39.994Z,99.90
2022-08-11T01:58:17.442Z,99.90
2022-08-11T02:01:04.269Z,99.90
2022-08-11T02:03:58.295Z,99.90
2022-08-11T02:06:58.562Z,99.90
2022-08-11T02:09:49.347Z,99.90
2022-08-11T02:12:52.212Z,99.90
2022-08-11T02:15:36.680Z,99.90
2022-08-11T02:18:08.565Z,99.90
2022-08-11T02:21:01.491Z,99.90
2022-08-11T02:24:07.001Z,99.90
2022-08-11T02:26:55.044Z,99.90
2022-08-11T02:29:48.250Z,99.90
2022-08-11T02:32:51.196Z,99.90
2022-08-11T02:35:53.352Z,99.90
2022-08-11T02:38:58.193Z,99.90
2022-08-11T02:41:58.194Z,99.90
2022-08-11T02:44:33.084Z,99.90
2022-08-11T02:47:00.372Z,99.90
2022-08-11T02:50:06.818Z,99.90
2022-08-11T02:52:41.255Z,99.90
2022-08-11T02:55:56.575Z,99.90
2022-08-11T02:58:36.804Z,99.90
2022-08-11T03:01:24.153Z,99.90
2022-08-11T03:04:12.765Z,99.90
2022-08-11T03:06:59.821Z,99.90
2022-08-11T03:09:47.119Z,99.90
2022-08-11T03:12:47.164Z,99.90
2022-08-11T03:15:46.713Z,99.90
2022-08-11T03:18:33.641Z,99.90
2022-08-11T03:22:01.164Z,99.90
2022-08-11T03:24:26.448Z,99.90
2022-08-11T03:27:21.811Z,99.90
2022-08-11T03:30:03.394Z,99.90
2022-08-11T03:33:12.588Z,99.90
2022-08-11T03:36:02.524Z,99.90
2022-08-11T03:38:38.812Z,99.90
2022-08-11T03:42:02.330Z,99.90
2022-08-11T03:44:42.584Z,99.90
2022-08-11T03:47:55.161Z,99.90
2022-08-11T03:50:50.731Z,99.90
2022-08-11T03:53:42.558Z,99.90
2022-08-11T03:56:49.460Z,99.90
2022-08-11T03:59:21.401Z,99.90
2022-08-11T04:02:26.449Z,99.90
2022-08-11T04:05:27.674Z,99.90
2022-08-11T04:08:08.102Z,99.90
2022-08-11T04:10:45.239Z,99.90
2022-08-11T04:13:50.490Z,99.90
2022-08-11T04:16:40.944Z,99.90
2022-08-11T04:19:39.305Z,99.90
2022-08-11T04:22:39.142Z,99.90
2022-08-11T04:25:29.437Z,99.90
2022-08-11T04:28:29.099Z,99.90
2022-08-11T04:31:13.750Z,99.90
2022-08-11T04:34:07.053Z,99.90
2022-08-11T04:37:27.178Z,99.90
2022-08-11T04:40:19.719Z,99.90
2022-08-11T04:43:25.273Z,99.90
2022-08-11T04:46:31.070Z,99.90
2022-08-11T04:49:55.386Z,99.90
2022-08-11T04:52:57.418Z,99.90
2022-08-11T04:56:16.531Z,99.90
2022-08-11T04:59:32.495Z,99.90
2022-08-11T05:02:34.536Z,99.90
2022-08-11T05:05:33.011Z,99.90
2022-08-11T05:08:24.245Z,99.90
2022-08-11T05:10:58.766Z,99.90
2022-08-11T05:13:52.750Z,99.90
2022-08-11T05:16:47.251Z,99.90
2022-08-11T05:19:40.829Z,99.90
2022-08-11T05:22:30.746Z,99.90
2022-08-11T05:26:42.670Z,99.90
2022-08-11T05:28:46.768Z,99.90
2022-08-11T05:31:40.531Z,99.90
2022-08-11T05:34:40.809Z,99.90
2022-08-11T05:37:26.605Z,99.90
2022-08-11T05:40:22.582Z,99.90
2022-08-11T05:43:13.172Z,99.90
2022-08-11T05:46:03.586Z,99.90
2022-08-11T05:48:55.682Z,99.90
2022-08-11T05:52:05.623Z,99.90
2022-08-11T05:55:06.419Z,99.90
2022-08-11T05:57:45.498Z,99.90
2022-08-11T06:00:19.691Z,99.90
2022-08-11T06:03:01.473Z,99.90
2022-08-11T06:05:44.023Z,99.90
2022-08-11T06:08:17.567Z,99.90
2022-08-11T06:10:47.982Z,99.90
2022-08-11T06:13:18.143Z,99.90
2022-08-11T06:15:51.037Z,99.90
2022-08-11T06:18:19.452Z,99.90
2022-08-11T06:20:56.699Z,99.90
2022-08-11T06:23:31.540Z,99.90
2022-08-11T06:26:00.264Z,99.90
2022-08-11T06:28:37.957Z,99.90
2022-08-11T06:31:20.773Z,99.90
2022-08-11T06:33:51.240Z,99.90
2022-08-11T06:36:28.105Z,99.90
2022-08-11T06:39:21.637Z,99.90
2022-08-11T06:42:07.435Z,99.90
2022-08-11T06:44:50.717Z,99.90
2022-08-11T06:47:20.727Z,99.90
2022-08-11T06:50:07.899Z,99.90
2022-08-11T06:52:37.901Z,99.90
2022-08-11T06:55:57.067Z,99.90
2022-08-11T06:58:52.541Z,99.90
2022-08-11T07:01:49.457Z,99.90
2022-08-11T07:04:32.600Z,99.90
2022-08-11T07:07:37.602Z,99.90
2022-08-11T07:10:46.790Z,99.90
2022-08-11T07:13:45.700Z,99.90
2022-08-11T07:16:24.328Z,99.90
2022-08-11T07:19:19.284Z,99.90
2022-08-11T07:22:07.362Z,99.90
2022-08-11T07:25:05.693Z,99.90
2022-08-11T07:28:02.185Z,99.90
2022-08-11T07:30:33.200Z,99.90
2022-08-11T07:33:03.309Z,99.90
2022-08-11T07:35:58.324Z,99.90
2022-08-11T07:38:47.837Z,99.90
2022-08-11T07:41:17.673Z,99.90
2022-08-11T07:43:49.485Z,99.30
2022-08-11T07:46:37.084Z,99.90
2022-08-11T07:49:26.853Z,99.30
2022-08-11T07:52:13.956Z,98.20
2022-08-11T07:54:50.118Z,97.90
2022-08-11T07:58:14.059Z,96.90
2022-08-11T08:00:51.630Z,98.20
2022-08-11T08:03:53.956Z,97.80
2022-08-11T08:06:43.889Z,96.70
2022-08-11T08:09:32.214Z,96.60
2022-08-11T08:12:21.054Z,95.10
2022-08-11T08:15:08.681Z,94.40
2022-08-11T08:18:09.629Z,95.20
2022-08-11T08:20:53.145Z,96.10
2022-08-11T08:23:33.903Z,94.50
2022-08-11T08:26:05.651Z,96.70
2022-08-11T08:28:41.276Z,94.60
2022-08-11T08:31:09.290Z,94.60
2022-08-11T08:33:41.437Z,93.20
2022-08-11T08:36:15.974Z,93.00
2022-08-11T08:38:54.328Z,93.60
2022-08-11T08:41:32.700Z,93.80
2022-08-11T08:44:37.621Z,93.30
2022-08-11T08:46:59.122Z,91.30
2022-08-11T08:49:51.755Z,90.50
2022-08-11T08:52:30.884Z,92.20
2022-08-11T08:55:09.047Z,90.60
2022-08-11T08:57:39.966Z,89.20
2022-08-11T09:00:12.951Z,90.20
2022-08-11T09:02:47.087Z,89.90
2022-08-11T09:05:19.239Z,91.90
2022-08-11T09:07:52.756Z,91.10
2022-08-11T09:10:21.792Z,90.70
2022-08-11T09:12:51.811Z,90.00
2022-08-11T09:15:20.218Z,88.00
2022-08-11T09:18:05.838Z,83.80
2022-08-11T09:20:36.998Z,86.40
2022-08-11T09:26:33.018Z,87.70
2022-08-11T09:29:01.966Z,86.00
2022-08-11T09:31:39.454Z,86.40
2022-08-11T09:34:11.871Z,83.50
2022-08-11T09:37:00.299Z,87.00
2022-08-11T09:39:49.887Z,86.20
2022-08-11T09:42:23.512Z,85.90
2022-08-11T09:44:53.873Z,85.40
2022-08-11T09:47:31.305Z,80.80
2022-08-11T09:50:01.807Z,78.70
2022-08-11T09:52:57.158Z,83.70
2022-08-11T09:55:30.667Z,78.20
2022-08-11T09:58:43.216Z,78.20
2022-08-11T10:01:05.580Z,75.40
2022-08-11T10:03:40.250Z,74.20
2022-08-11T10:06:34.203Z,72.00
2022-08-11T10:09:05.524Z,70.10
2022-08-11T10:11:36.968Z,71.60
2022-08-11T10:14:33.489Z,75.10
2022-08-11T10:17:08.778Z,70.30
2022-08-11T10:19:38.219Z,72.70
2022-08-11T10:22:27.563Z,69.20
2022-08-11T10:25:19.936Z,71.10
2022-08-11T10:28:32.810Z,67.10
2022-08-11T10:31:06.950Z,66.80
2022-08-11T10:34:00.567Z,63.90
2022-08-11T10:36:34.478Z,64.80
2022-08-11T10:39:04.666Z,65.00
2022-08-11T10:42:08.223Z,62.70
2022-08-11T10:44:45.293Z,66.40
2022-08-11T10:47:34.380Z,64.10
2022-08-11T10:50:29.128Z,63.10
2022-08-11T10:53:18.076Z,62.10
2022-08-11T10:56:06.214Z,64.80
2022-08-11T10:58:50.349Z,64.70
2022-08-11T11:01:30.527Z,63.70
2022-08-11T11:04:02.869Z,63.20
2022-08-11T11:06:45.001Z,62.60
2022-08-11T11:09:33.181Z,63.50
2022-08-11T11:12:35.085Z,61.10
2022-08-11T11:15:24.824Z,63.90
2022-08-11T11:18:17.806Z,61.50
2022-08-11T11:20:57.670Z,61.80
2022-08-11T11:23:47.725Z,61.50
2022-08-11T11:26:34.594Z,59.90
2022-08-11T11:29:39.635Z,59.30
2022-08-11T11:32:22.637Z,59.90
2022-08-11T11:34:58.545Z,58.60
2022-08-11T11:37:26.996Z,57.60
2022-08-11T11:40:01.273Z,57.70
2022-08-11T11:42:30.265Z,58.70
2022-08-11T11:45:01.279Z,57.70
2022-08-11T11:47:33.016Z,56.90
2022-08-11T11:50:01.135Z,56.50
2022-08-11T11:52:28.947Z,58.40
2022-08-11T11:54:58.646Z,58.20
2022-08-11T11:57:59.344Z,55.70
2022-08-11T12:00:49.843Z,56.70
2022-08-11T12:03:20.321Z,56.50
2022-08-11T12:05:48.501Z,54.60
2022-08-11T12:08:27.594Z,54.80
2022-08-11T12:11:18.385Z,54.70
2022-08-11T12:13:50.927Z,53.80
2022-08-11T12:16:32.826Z,55.90
2022-08-11T12:19:18.069Z,53.70
2022-08-11T12:22:05.542Z,54.10
2022-08-11T12:24:53.344Z,54.50
2022-08-11T12:27:25.120Z,56.70
2022-08-11T12:30:06.331Z,53.60
2022-08-11T12:32:39.000Z,57.10
2022-08-11T12:35:08.397Z,53.20
2022-08-11T12:37:43.827Z,52.40
2022-08-11T12:41:13.732Z,53.00
2022-08-11T12:43:57.247Z,55.80
2022-08-11T12:46:50.234Z,52.30
2022-08-11T12:49:43.369Z,55.60
2022-08-11T12:52:30.471Z,50.80
2022-08-11T12:55:02.964Z,50.50
2022-08-11T12:57:55.863Z,49.70
2022-08-11T13:00:43.754Z,48.60
2022-08-11T13:03:33.016Z,51.00
2022-08-11T13:06:03.736Z,50.30
2022-08-11T13:08:38.686Z,51.20
2022-08-11T13:11:56.328Z,52.10
2022-08-11T13:14:16.141Z,53.00
2022-08-11T13:17:07.119Z,48.20
2022-08-11T13:19:37.298Z,48.10
2022-08-11T13:22:07.571Z,48.30
2022-08-11T13:24:36.720Z,48.20
2022-08-11T13:27:04.648Z,47.80
2022-08-11T13:29:32.857Z,49.70
2022-08-11T13:32:01.047Z,47.60
2022-08-11T13:34:31.505Z,49.60
2022-08-11T13:37:05.473Z,47.80
2022-08-11T13:39:34.863Z,49.60
2022-08-11T13:42:04.275Z,46.60
2022-08-11T13:44:37.125Z,51.00
2022-08-11T13:47:07.213Z,45.20
2022-08-11T13:49:39.764Z,46.30
2022-08-11T13:52:13.974Z,44.20
2022-08-11T13:54:51.897Z,46.90
2022-08-11T13:58:07.737Z,47.10
2022-08-11T14:00:13.426Z,46.50
2022-08-11T14:02:54.237Z,46.90
2022-08-11T14:05:27.515Z,50.20
2022-08-11T14:08:04.235Z,47.60
2022-08-11T14:10:35.459Z,50.40
2022-08-11T14:13:42.445Z,47.00
2022-08-11T14:16:31.500Z,50.10
2022-08-11T14:19:05.487Z,47.70
2022-08-11T14:21:57.436Z,49.60
2022-08-11T14:24:26.245Z,46.50
2022-08-11T14:26:54.646Z,45.40
2022-08-11T14:29:28.492Z,45.40
2022-08-11T14:31:59.143Z,46.90
2022-08-11T14:34:30.538Z,47.00
2022-08-11T14:37:07.792Z,46.70
2022-08-11T14:39:40.274Z,45.20
2022-08-11T14:42:29.161Z,44.70
2022-08-11T14:45:22.735Z,46.40
2022-08-11T14:47:55.359Z,45.50
2022-08-11T14:50:28.559Z,46.10
2022-08-11T14:52:59.773Z,46.20
2022-08-11T14:55:51.130Z,46.70
2022-08-11T14:58:21.277Z,46.90
2022-08-11T15:00:58.589Z,47.60
2022-08-11T15:03:32.308Z,48.80
2022-08-11T15:06:03.241Z,48.80
2022-08-11T15:08:52.193Z,47.80
2022-08-11T15:11:41.446Z,48.20
2022-08-11T15:14:13.185Z,48.00
2022-08-11T15:17:04.973Z,48.30
2022-08-11T15:19:40.085Z,50.30
2022-08-11T15:22:29.565Z,49.10
2022-08-11T15:25:00.626Z,49.40
2022-08-11T15:27:49.525Z,50.40
2022-08-11T15:30:36.807Z,50.10
2022-08-11T15:33:27.099Z,49.20
2022-08-11T15:36:19.099Z,49.10
2022-08-11T15:39:00.345Z,49.20
2022-08-11T15:42:00.835Z,49.60
2022-08-11T15:45:06.275Z,49.50
2022-08-11T15:48:05.193Z,50.80
2022-08-11T15:50:40.743Z,52.40
2022-08-11T15:53:42.784Z,50.30
2022-08-11T15:56:12.357Z,50.80
2022-08-11T15:59:41.217Z,50.80
2022-08-11T16:02:13.325Z,51.30
2022-08-11T16:04:51.461Z,51.00
2022-08-11T16:07:26.997Z,52.40
2022-08-11T16:10:14.816Z,53.20
2022-08-11T16:13:17.613Z,54.20
2022-08-11T16:16:13.304Z,53.30
2022-08-11T16:18:56.699Z,53.30
2022-08-11T16:21:36.017Z,55.40
2022-08-11T16:25:58.149Z,56.60
2022-08-11T16:27:13.137Z,54.50
2022-08-11T16:29:48.825Z,55.70
2022-08-11T16:32:24.011Z,55.80
2022-08-11T16:35:37.233Z,55.60
2022-08-11T16:38:24.447Z,56.10
2022-08-11T16:40:53.830Z,53.50
2022-08-11T16:43:47.530Z,53.00
2022-08-11T16:46:37.167Z,53.80
2022-08-11T16:49:37.124Z,53.10
2022-08-11T16:52:12.325Z,53.90
2022-08-11T16:54:44.566Z,52.90
2022-08-11T16:57:43.170Z,53.50
2022-08-11T17:00:15.624Z,52.90
2022-08-11T17:03:10.696Z,53.00
2022-08-11T17:06:05.803Z,54.50
2022-08-11T17:08:57.016Z,54.30
2022-08-11T17:11:49.685Z,56.10
2022-08-11T17:14:35.549Z,55.60
2022-08-11T17:17:11.985Z,55.40
2022-08-11T17:20:41.593Z,56.10
2022-08-11T17:22:58.485Z,55.40
2022-08-11T17:26:03.159Z,54.60
2022-08-11T17:28:24.408Z,54.00
2022-08-11T17:31:19.984Z,53.80
2022-08-11T17:34:11.125Z,54.20
2022-08-11T17:36:45.128Z,54.60
2022-08-11T17:39:15.228Z,54.90
2022-08-11T17:42:03.937Z,55.10
2022-08-11T17:44:53.857Z,55.40
2022-08-11T17:47:42.561Z,55.00
2022-08-11T17:50:17.284Z,55.00
2022-08-11T17:53:06.912Z,55.80
2022-08-11T17:55:56.037Z,55.20
2022-08-11T17:58:59.174Z,56.30
2022-08-11T18:01:29.051Z,56.30
2022-08-11T18:03:59.656Z,57.90
2022-08-11T18:06:34.123Z,57.40
2022-08-11T18:09:29.871Z,57.40
2022-08-11T18:12:17.488Z,57.90
2022-08-11T18:15:07.721Z,58.00
2022-08-11T18:17:55.105Z,58.20
2022-08-11T18:20:42.929Z,58.50
2022-08-11T18:23:40.708Z,58.00
2022-08-11T18:26:42.426Z,58.90
2022-08-11T18:29:29.409Z,59.20
2022-08-11T18:32:21.228Z,58.80
2022-08-11T18:35:11.256Z,59.40
2022-08-11T18:38:04.937Z,60.60
2022-08-11T18:40:54.118Z,60.30
2022-08-11T18:43:43.172Z,60.30
2022-08-11T18:46:32.488Z,61.20
2022-08-11T18:50:01.578Z,61.70
2022-08-11T18:52:39.054Z,61.70
2022-08-11T18:55:32.499Z,62.10
2022-08-11T18:58:24.786Z,62.10
2022-08-11T19:01:16.232Z,62.60
2022-08-11T19:04:11.762Z,62.70
2022-08-11T19:07:07.439Z,63.50
2022-08-11T19:09:57.229Z,63.40
2022-08-11T19:12:46.064Z,65.30
2022-08-11T19:15:35.220Z,66.40
2022-08-11T19:18:22.972Z,66.10
2022-08-11T19:21:11.757Z,67.50
2022-08-11T19:24:03.022Z,68.50
2022-08-11T19:26:53.151Z,71.60
2022-08-11T19:30:11.211Z,72.40
2022-08-11T19:32:50.648Z,73.60
2022-08-11T19:35:38.140Z,75.50
2022-08-11T19:38:25.630Z,75.20
2022-08-11T19:41:13.094Z,75.60
2022-08-11T19:44:05.091Z,77.70
2022-08-11T19:46:52.774Z,78.70
2022-08-11T19:49:40.285Z,79.10
2022-08-11T19:52:27.693Z,82.00
2022-08-11T19:55:16.479Z,82.30
2022-08-11T19:58:03.829Z,82.70
2022-08-11T20:00:52.408Z,82.20
2022-08-11T20:03:39.783Z,83.00
2022-08-11T20:06:30.518Z,83.50
2022-08-11T20:09:20.519Z,84.90
2022-08-11T20:12:16.702Z,84.60
2022-08-11T20:15:08.761Z,85.90
2022-08-11T20:17:58.744Z,86.10
2022-08-11T20:20:47.435Z,86.50
2022-08-11T20:23:36.319Z,88.50
2022-08-11T20:26:31.733Z,88.70
2022-08-11T20:29:20.358Z,90.10
2022-08-11T20:32:09.639Z,89.80
2022-08-11T20:34:59.157Z,90.00
2022-08-11T20:37:51.049Z,90.00
2022-08-11T20:40:41.226Z,90.60
2022-08-11T20:44:08.010Z,91.50
2022-08-11T20:46:41.633Z,92.10
2022-08-11T20:49:40.959Z,92.40
2022-08-11T20:52:31.600Z,92.00
2022-08-11T20:58:42.289Z,92.00
2022-08-11T21:01:38.890Z,92.70
2022-08-11T21:04:27.447Z,91.60
2022-08-11T21:07:18.562Z,90.80
2022-08-11T21:10:23.205Z,91.10
2022-08-11T21:13:18.023Z,91.40
2022-08-11T21:16:26.294Z,91.60
2022-08-11T21:19:59.630Z,91.20
2022-08-11T21:22:29.091Z,90.90
2022-08-11T21:25:17.966Z,90.70
2022-08-11T21:28:07.619Z,90.50
2022-08-11T21:30:57.649Z,90.10
2022-08-11T21:33:48.081Z,90.40
2022-08-11T21:36:34.297Z,90.40
2022-08-11T21:39:24.954Z,90.40
2022-08-11T21:42:16.667Z,90.40
2022-08-11T21:45:08.616Z,90.40
2022-08-11T21:48:01.342Z,90.30
2022-08-11T21:50:49.166Z,90.40
2022-08-11T21:53:40.092Z,90.30
2022-08-11T21:56:28.044Z,90.40
2022-08-11T21:59:17.068Z,90.30
2022-08-11T22:02:12.590Z,90.50
2022-08-11T22:05:01.309Z,90.40
2022-08-11T22:07:48.378Z,90.40
2022-08-11T22:10:41.516Z,90.60
2022-08-11T22:13:30.858Z,90.50
2022-08-11T22:16:19.234Z,90.50
2022-08-11T22:19:09.131Z,90.40
2022-08-11T22:22:01.363Z,90.40
2022-08-11T22:24:52.158Z,90.30
2022-08-11T22:27:40.032Z,90.40
2022-08-11T22:30:28.731Z,90.40
2022-08-11T22:33:17.488Z,90.40
2022-08-11T22:39:20.155Z,90.40
2022-08-11T22:42:06.512Z,90.60
2022-08-11T22:44:52.395Z,90.60
2022-08-11T22:47:42.608Z,90.50
2022-08-11T22:50:30.353Z,90.50
2022-08-11T22:53:17.727Z,90.20
2022-08-11T22:56:05.993Z,90.20
2022-08-11T22:58:55.266Z,90.40
2022-08-11T23:01:55.334Z,90.40
2022-08-11T23:04:45.183Z,90.10
2022-08-11T23:07:51.418Z,90.20
2022-08-11T23:10:40.792Z,90.40
2022-08-11T23:13:28.312Z,90.40
2022-08-11T23:16:17.554Z,90.50
2022-08-11T23:19:09.229Z,90.60
2022-08-11T23:21:56.989Z,90.50
2022-08-11T23:24:46.896Z,90.90
2022-08-11T23:27:33.361Z,91.00
2022-08-11T23:30:24.859Z,91.40
2022-08-11T23:33:16.342Z,91.40
2022-08-11T23:36:07.735Z,91.50
2022-08-11T23:38:53.795Z,91.70
2022-08-11T23:41:40.980Z,91.90
2022-08-11T23:44:28.363Z,91.90
2022-08-11T23:47:19.447Z,92.00
2022-08-11T23:50:07.619Z,92.30
2022-08-11T23:52:55.108Z,92.40
2022-08-11T23:55:42.134Z,92.60
2022-08-11T23:58:30.507Z,92.50
